sensor_id;sensor_type;location;lat;lon;timestamp;temperature;humidity
50162;DHT22;36061;48.116;11.612;2023-03-03T00:00:50;1.40;99.90
50162;DHT22;36061;48.116;11.612;2023-03-03T00:03:20;1.40;99.90
50162;DHT22;36061;48.116;11.612;2023-03-03T00:05:48;1.40;99.90
50162;DHT22;36061;48.116;11.612;2023-03-03T00:08:15;1.30;99.90
50162;DHT22;36061;48.116;11.612;2023-03-03T00:10:43;1.40;99.90
50162;DHT22;36061;48.116;11.612;2023-03-03T00:13:15;1.30;99.90
50162;DHT22;36061;48.116;11.612;2023-03-03T00:15:43;1.30;99.90
50162;DHT22;36061;48.116;11.612;2023-03-03T00:18:24;1.30;99.90
50162;DHT22;36061;48.116;11.612;2023-03-03T00:20:54;1.30;99.90
50162;DHT22;36061;48.116;11.612;2023-03-03T00:23:29;1.20;99.90
50162;DHT22;36061;48.116;11.612;2023-03-03T00:25:57;1.30;99.90
50162;DHT22;36061;48.116;11.612;2023-03-03T00:28:28;1.30;99.90
50162;DHT22;36061;48.116;11.612;2023-03-03T00:30:57;1.30;99.90
50162;DHT22;36061;48.116;11.612;2023-03-03T00:33:29;1.20;99.90
50162;DHT22;36061;48.116;11.612;2023-03-03T00:36:24;1.20;99.90
50162;DHT22;36061;48.116;11.612;2023-03-03T00:38:54;1.20;99.90
50162;DHT22;36061;48.116;11.612;2023-03-03T00:41:24;1.20;99.90
50162;DHT22;36061;48.116;11.612;2023-03-03T00:43:53;1.20;99.90
50162;DHT22;36061;48.116;11.612;2023-03-03T00:46:21;1.10;99.90
50162;DHT22;36061;48.116;11.612;2023-03-03T00:48:51;1.10;99.90
50162;DHT22;36061;48.116;11.612;2023-03-03T00:51:29;1.10;99.90
50162;DHT22;36061;48.116;11.612;2023-03-03T00:53:58;1.10;99.90
50162;DHT22;36061;48.116;11.612;2023-03-03T00:56:25;1.10;99.90
50162;DHT22;36061;48.116;11.612;2023-03-03T00:58:53;1.00;99.90
50162;DHT22;36061;48.116;11.612;2023-03-03T01:01:21;1.00;99.90
50162;DHT22;36061;48.116;11.612;2023-03-03T01:03:53;1.10;99.90
50162;DHT22;36061;48.116;11.612;2023-03-03T01:06:21;1.10;99.90
50162;DHT22;36061;48.116;11.612;2023-03-03T01:08:48;1.00;99.90
50162;DHT22;36061;48.116;11.612;2023-03-03T01:11:20;1.00;99.90
50162;DHT22;36061;48.116;11.612;2023-03-03T01:13:49;1.00;99.90
50162;DHT22;36061;48.116;11.612;2023-03-03T01:16:17;1.10;99.90
50162;DHT22;36061;48.116;11.612;2023-03-03T01:18:45;1.00;99.90
50162;DHT22;36061;48.116;11.612;2023-03-03T01:21:13;1.00;99.90
50162;DHT22;36061;48.116;11.612;2023-03-03T01:23:41;1.00;99.90
50162;DHT22;36061;48.116;11.612;2023-03-03T01:26:08;0.90;99.90
50162;DHT22;36061;48.116;11.612;2023-03-03T01:28:35;0.90;99.90
50162;DHT22;36061;48.116;11.612;2023-03-03T01:31:03;0.90;99.90
50162;DHT22;36061;48.116;11.612;2023-03-03T01:33:31;0.90;99.90
50162;DHT22;36061;48.116;11.612;2023-03-03T01:35:58;0.90;99.90
50162;DHT22;36061;48.116;11.612;2023-03-03T01:38:27;0.90;99.90
50162;DHT22;36061;48.116;11.612;2023-03-03T01:40:57;0.90;99.90
50162;DHT22;36061;48.116;11.612;2023-03-03T01:43:26;0.90;99.90
50162;DHT22;36061;48.116;11.612;2023-03-03T01:48:58;0.90;99.90
50162;DHT22;36061;48.116;11.612;2023-03-03T01:51:31;0.90;99.90
50162;DHT22;36061;48.116;11.612;2023-03-03T01:54:02;0.90;99.90
50162;DHT22;36061;48.116;11.612;2023-03-03T01:56:30;0.80;99.90
50162;DHT22;36061;48.116;11.612;2023-03-03T01:58:59;0.80;99.90
50162;DHT22;36061;48.116;11.612;2023-03-03T02:01:28;0.80;99.90
50162;DHT22;36061;48.116;11.612;2023-03-03T02:03:58;0.80;99.90
50162;DHT22;36061;48.116;11.612;2023-03-03T02:06:28;0.80;99.90
50162;DHT22;36061;48.116;11.612;2023-03-03T02:09:01;0.80;99.90
50162;DHT22;36061;48.116;11.612;2023-03-03T02:11:31;0.90;99.90
50162;DHT22;36061;48.116;11.612;2023-03-03T02:14:00;0.80;99.90
50162;DHT22;36061;48.116;11.612;2023-03-03T02:16:28;0.80;99.90
50162;DHT22;36061;48.116;11.612;2023-03-03T02:18:55;0.80;99.90
50162;DHT22;36061;48.116;11.612;2023-03-03T02:21:23;0.80;99.90
50162;DHT22;36061;48.116;11.612;2023-03-03T02:23:57;0.80;99.90
50162;DHT22;36061;48.116;11.612;2023-03-03T02:26:29;0.80;99.90
50162;DHT22;36061;48.116;11.612;2023-03-03T02:29:02;0.80;99.90
50162;DHT22;36061;48.116;11.612;2023-03-03T02:31:31;0.70;99.90
50162;DHT22;36061;48.116;11.612;2023-03-03T02:33:59;0.80;99.90
50162;DHT22;36061;48.116;11.612;2023-03-03T02:36:29;0.70;99.90
50162;DHT22;36061;48.116;11.612;2023-03-03T02:39:04;0.70;99.90
50162;DHT22;36061;48.116;11.612;2023-03-03T02:41:38;0.70;99.90
50162;DHT22;36061;48.116;11.612;2023-03-03T02:44:09;0.70;99.90
50162;DHT22;36061;48.116;11.612;2023-03-03T02:46:38;0.70;99.90
50162;DHT22;36061;48.116;11.612;2023-03-03T02:49:07;0.70;99.90
50162;DHT22;36061;48.116;11.612;2023-03-03T02:51:36;0.80;99.90
50162;DHT22;36061;48.116;11.612;2023-03-03T02:54:04;0.80;99.90
50162;DHT22;36061;48.116;11.612;2023-03-03T02:56:34;0.80;99.90
50162;DHT22;36061;48.116;11.612;2023-03-03T02:59:01;0.90;99.90
50162;DHT22;36061;48.116;11.612;2023-03-03T03:01:33;0.90;99.90
50162;DHT22;36061;48.116;11.612;2023-03-03T03:04:05;0.90;99.90
50162;DHT22;36061;48.116;11.612;2023-03-03T03:06:33;0.80;99.90
50162;DHT22;36061;48.116;11.612;2023-03-03T03:09:00;0.80;99.90
50162;DHT22;36061;48.116;11.612;2023-03-03T03:11:28;0.80;99.90
50162;DHT22;36061;48.116;11.612;2023-03-03T03:13:57;0.80;99.90
50162;DHT22;36061;48.116;11.612;2023-03-03T03:16:24;0.80;99.90
50162;DHT22;36061;48.116;11.612;2023-03-03T03:18:51;0.80;99.90
50162;DHT22;36061;48.116;11.612;2023-03-03T03:21:19;0.80;99.90
50162;DHT22;36061;48.116;11.612;2023-03-03T03:23:46;0.90;99.90
50162;DHT22;36061;48.116;11.612;2023-03-03T03:26:14;0.90;99.90
50162;DHT22;36061;48.116;11.612;2023-03-03T03:28:41;0.90;99.90
50162;DHT22;36061;48.116;11.612;2023-03-03T03:31:10;0.90;99.90
50162;DHT22;36061;48.116;11.612;2023-03-03T03:33:37;1.00;99.90
50162;DHT22;36061;48.116;11.612;2023-03-03T03:36:06;1.00;99.90
50162;DHT22;36061;48.116;11.612;2023-03-03T03:38:34;1.00;99.90
50162;DHT22;36061;48.116;11.612;2023-03-03T03:41:05;1.10;99.90
50162;DHT22;36061;48.116;11.612;2023-03-03T03:43:33;1.20;99.90
50162;DHT22;36061;48.116;11.612;2023-03-03T03:46:01;1.30;99.90
50162;DHT22;36061;48.116;11.612;2023-03-03T03:48:30;1.30;99.90
50162;DHT22;36061;48.116;11.612;2023-03-03T03:50:59;1.30;99.90
50162;DHT22;36061;48.116;11.612;2023-03-03T03:53:27;1.30;99.90
50162;DHT22;36061;48.116;11.612;2023-03-03T03:55:55;1.30;99.90
50162;DHT22;36061;48.116;11.612;2023-03-03T03:58:22;1.20;99.90
50162;DHT22;36061;48.116;11.612;2023-03-03T04:01:00;1.30;99.90
50162;DHT22;36061;48.116;11.612;2023-03-03T04:03:27;1.30;99.90
50162;DHT22;36061;48.116;11.612;2023-03-03T04:05:56;1.30;99.90
50162;DHT22;36061;48.116;11.612;2023-03-03T04:08:23;1.30;99.90
50162;DHT22;36061;48.116;11.612;2023-03-03T04:10:50;1.30;99.90
50162;DHT22;36061;48.116;11.612;2023-03-03T04:13:17;1.40;99.90
50162;DHT22;36061;48.116;11.612;2023-03-03T04:15:45;1.40;99.90
50162;DHT22;36061;48.116;11.612;2023-03-03T04:18:13;1.40;99.90
50162;DHT22;36061;48.116;11.612;2023-03-03T04:20:40;1.40;99.90
50162;DHT22;36061;48.116;11.612;2023-03-03T04:23:10;1.50;99.90
50162;DHT22;36061;48.116;11.612;2023-03-03T04:25:38;1.50;99.90
50162;DHT22;36061;48.116;11.612;2023-03-03T04:28:12;1.50;99.90
50162;DHT22;36061;48.116;11.612;2023-03-03T04:30:39;1.50;99.90
50162;DHT22;36061;48.116;11.612;2023-03-03T04:33:07;1.50;99.90
50162;DHT22;36061;48.116;11.612;2023-03-03T04:35:37;1.50;99.90
50162;DHT22;36061;48.116;11.612;2023-03-03T04:38:04;1.50;99.90
50162;DHT22;36061;48.116;11.612;2023-03-03T04:40:34;1.60;99.90
50162;DHT22;36061;48.116;11.612;2023-03-03T04:43:02;1.50;99.90
50162;DHT22;36061;48.116;11.612;2023-03-03T04:45:29;1.50;99.90
50162;DHT22;36061;48.116;11.612;2023-03-03T04:47:57;1.50;99.90
50162;DHT22;36061;48.116;11.612;2023-03-03T04:50:24;1.60;99.90
50162;DHT22;36061;48.116;11.612;2023-03-03T04:52:52;1.50;99.90
50162;DHT22;36061;48.116;11.612;2023-03-03T04:55:20;1.60;99.90
50162;DHT22;36061;48.116;11.612;2023-03-03T04:57:49;1.60;99.90
50162;DHT22;36061;48.116;11.612;2023-03-03T05:00:17;1.60;99.90
50162;DHT22;36061;48.116;11.612;2023-03-03T05:02:46;1.60;99.90
50162;DHT22;36061;48.116;11.612;2023-03-03T05:05:15;1.60;99.90
50162;DHT22;36061;48.116;11.612;2023-03-03T05:07:42;1.60;99.90
50162;DHT22;36061;48.116;11.612;2023-03-03T05:10:10;1.70;99.90
50162;DHT22;36061;48.116;11.612;2023-03-03T05:12:37;1.70;99.90
50162;DHT22;36061;48.116;11.612;2023-03-03T05:15:07;1.70;99.90
50162;DHT22;36061;48.116;11.612;2023-03-03T05:17:34;1.70;99.90
50162;DHT22;36061;48.116;11.612;2023-03-03T05:20:01;1.70;99.90
50162;DHT22;36061;48.116;11.612;2023-03-03T05:22:30;1.80;99.90
50162;DHT22;36061;48.116;11.612;2023-03-03T05:24:57;1.80;99.90
50162;DHT22;36061;48.116;11.612;2023-03-03T05:27:24;1.80;99.90
50162;DHT22;36061;48.116;11.612;2023-03-03T05:29:52;1.90;99.90
50162;DHT22;36061;48.116;11.612;2023-03-03T05:32:20;1.90;99.90
50162;DHT22;36061;48.116;11.612;2023-03-03T05:34:47;1.90;99.90
50162;DHT22;36061;48.116;11.612;2023-03-03T05:37:15;1.90;99.90
50162;DHT22;36061;48.116;11.612;2023-03-03T05:39:42;2.00;99.90
50162;DHT22;36061;48.116;11.612;2023-03-03T05:42:11;2.00;99.90
50162;DHT22;36061;48.116;11.612;2023-03-03T05:44:38;2.00;99.90
50162;DHT22;36061;48.116;11.612;2023-03-03T05:47:06;2.00;99.90
50162;DHT22;36061;48.116;11.612;2023-03-03T05:49:34;2.00;99.90
50162;DHT22;36061;48.116;11.612;2023-03-03T05:52:02;2.00;99.90
50162;DHT22;36061;48.116;11.612;2023-03-03T05:54:29;2.00;99.90
50162;DHT22;36061;48.116;11.612;2023-03-03T05:56:57;2.00;99.90
50162;DHT22;36061;48.116;11.612;2023-03-03T05:59:24;2.00;99.90
50162;DHT22;36061;48.116;11.612;2023-03-03T06:01:51;2.00;99.90
50162;DHT22;36061;48.116;11.612;2023-03-03T06:04:18;2.10;99.90
50162;DHT22;36061;48.116;11.612;2023-03-03T06:06:47;2.10;99.90
50162;DHT22;36061;48.116;11.612;2023-03-03T06:09:14;2.10;99.90
50162;DHT22;36061;48.116;11.612;2023-03-03T06:11:43;2.10;99.90
50162;DHT22;36061;48.116;11.612;2023-03-03T06:14:11;2.10;99.90
50162;DHT22;36061;48.116;11.612;2023-03-03T06:16:38;2.20;99.90
50162;DHT22;36061;48.116;11.612;2023-03-03T06:19:05;2.20;99.90
50162;DHT22;36061;48.116;11.612;2023-03-03T06:21:32;2.20;99.90
50162;DHT22;36061;48.116;11.612;2023-03-03T06:24:01;2.20;99.90
50162;DHT22;36061;48.116;11.612;2023-03-03T06:26:30;2.20;99.90
50162;DHT22;36061;48.116;11.612;2023-03-03T06:28:58;2.20;99.90
50162;DHT22;36061;48.116;11.612;2023-03-03T06:31:26;2.20;99.90
50162;DHT22;36061;48.116;11.612;2023-03-03T06:33:53;2.20;99.90
50162;DHT22;36061;48.116;11.612;2023-03-03T06:36:20;2.20;99.90
50162;DHT22;36061;48.116;11.612;2023-03-03T06:38:48;2.30;99.90
50162;DHT22;36061;48.116;11.612;2023-03-03T06:41:17;2.30;99.90
50162;DHT22;36061;48.116;11.612;2023-03-03T06:43:44;2.30;99.90
50162;DHT22;36061;48.116;11.612;2023-03-03T06:46:12;2.30;99.90
50162;DHT22;36061;48.116;11.612;2023-03-03T06:48:39;2.30;99.90
50162;DHT22;36061;48.116;11.612;2023-03-03T06:51:22;2.30;99.90
50162;DHT22;36061;48.116;11.612;2023-03-03T06:53:53;2.40;99.90
50162;DHT22;36061;48.116;11.612;2023-03-03T06:56:23;2.40;99.90
50162;DHT22;36061;48.116;11.612;2023-03-03T06:58:53;2.30;99.90
50162;DHT22;36061;48.116;11.612;2023-03-03T07:01:21;2.30;99.90
50162;DHT22;36061;48.116;11.612;2023-03-03T07:03:48;2.40;99.90
50162;DHT22;36061;48.116;11.612;2023-03-03T07:06:20;2.40;99.90
50162;DHT22;36061;48.116;11.612;2023-03-03T07:08:49;2.40;99.90
50162;DHT22;36061;48.116;11.612;2023-03-03T07:11:18;2.40;99.90
50162;DHT22;36061;48.116;11.612;2023-03-03T07:13:48;2.50;99.90
50162;DHT22;36061;48.116;11.612;2023-03-03T07:16:17;2.40;99.90
50162;DHT22;36061;48.116;11.612;2023-03-03T07:18:49;2.40;99.90
50162;DHT22;36061;48.116;11.612;2023-03-03T07:21:18;2.40;99.90
50162;DHT22;36061;48.116;11.612;2023-03-03T07:23:47;2.40;99.90
50162;DHT22;36061;48.116;11.612;2023-03-03T07:26:18;2.40;99.90
50162;DHT22;36061;48.116;11.612;2023-03-03T07:28:52;2.40;99.90
50162;DHT22;36061;48.116;11.612;2023-03-03T07:31:27;2.40;99.90
50162;DHT22;36061;48.116;11.612;2023-03-03T07:33:56;2.50;99.90
50162;DHT22;36061;48.116;11.612;2023-03-03T07:36:28;2.50;99.90
50162;DHT22;36061;48.116;11.612;2023-03-03T07:38:58;2.50;99.90
50162;DHT22;36061;48.116;11.612;2023-03-03T07:41:27;2.50;99.90
50162;DHT22;36061;48.116;11.612;2023-03-03T07:44:00;2.50;99.90
50162;DHT22;36061;48.116;11.612;2023-03-03T07:46:35;2.50;99.90
50162;DHT22;36061;48.116;11.612;2023-03-03T07:49:15;2.50;99.90
50162;DHT22;36061;48.116;11.612;2023-03-03T07:51:46;2.60;99.90
50162;DHT22;36061;48.116;11.612;2023-03-03T07:54:22;2.60;99.90
50162;DHT22;36061;48.116;11.612;2023-03-03T07:56:55;2.60;99.90
50162;DHT22;36061;48.116;11.612;2023-03-03T07:59:25;2.60;99.90
50162;DHT22;36061;48.116;11.612;2023-03-03T08:01:54;2.70;99.90
50162;DHT22;36061;48.116;11.612;2023-03-03T08:04:28;2.70;99.90
50162;DHT22;36061;48.116;11.612;2023-03-03T08:06:57;2.70;99.90
50162;DHT22;36061;48.116;11.612;2023-03-03T08:09:53;2.80;99.90
50162;DHT22;36061;48.116;11.612;2023-03-03T08:12:38;2.80;99.90
50162;DHT22;36061;48.116;11.612;2023-03-03T08:15:20;2.90;99.90
50162;DHT22;36061;48.116;11.612;2023-03-03T08:17:50;2.90;99.90
50162;DHT22;36061;48.116;11.612;2023-03-03T08:20:41;3.00;99.90
50162;DHT22;36061;48.116;11.612;2023-03-03T08:23:09;3.10;99.90
50162;DHT22;36061;48.116;11.612;2023-03-03T08:25:37;3.10;99.90
50162;DHT22;36061;48.116;11.612;2023-03-03T08:28:05;3.20;99.90
50162;DHT22;36061;48.116;11.612;2023-03-03T08:30:34;3.30;99.90
50162;DHT22;36061;48.116;11.612;2023-03-03T08:33:01;3.30;99.90
50162;DHT22;36061;48.116;11.612;2023-03-03T08:35:29;3.40;99.90
50162;DHT22;36061;48.116;11.612;2023-03-03T08:37:56;3.50;99.90
50162;DHT22;36061;48.116;11.612;2023-03-03T08:40:23;3.60;99.90
50162;DHT22;36061;48.116;11.612;2023-03-03T08:42:51;3.70;99.90
50162;DHT22;36061;48.116;11.612;2023-03-03T08:45:19;3.70;99.90
50162;DHT22;36061;48.116;11.612;2023-03-03T08:47:48;3.70;99.90
50162;DHT22;36061;48.116;11.612;2023-03-03T08:50:15;3.80;99.90
50162;DHT22;36061;48.116;11.612;2023-03-03T08:52:43;3.80;99.90
50162;DHT22;36061;48.116;11.612;2023-03-03T08:55:10;3.90;99.90
50162;DHT22;36061;48.116;11.612;2023-03-03T08:57:38;3.90;99.90
50162;DHT22;36061;48.116;11.612;2023-03-03T09:00:07;3.90;99.90
50162;DHT22;36061;48.116;11.612;2023-03-03T09:02:35;3.90;99.90
50162;DHT22;36061;48.116;11.612;2023-03-03T09:05:04;4.00;99.90
50162;DHT22;36061;48.116;11.612;2023-03-03T09:07:32;4.00;99.90
50162;DHT22;36061;48.116;11.612;2023-03-03T09:09:59;4.10;99.90
50162;DHT22;36061;48.116;11.612;2023-03-03T09:12:29;4.10;99.90
50162;DHT22;36061;48.116;11.612;2023-03-03T09:14:59;4.20;99.90
50162;DHT22;36061;48.116;11.612;2023-03-03T09:17:32;4.20;99.90
50162;DHT22;36061;48.116;11.612;2023-03-03T09:20:10;4.20;99.90
50162;DHT22;36061;48.116;11.612;2023-03-03T09:22:44;4.30;99.90
50162;DHT22;36061;48.116;11.612;2023-03-03T09:25:21;4.40;99.90
50162;DHT22;36061;48.116;11.612;2023-03-03T09:27:48;4.40;99.90
50162;DHT22;36061;48.116;11.612;2023-03-03T09:30:32;4.40;99.90
50162;DHT22;36061;48.116;11.612;2023-03-03T09:33:01;4.50;99.90
50162;DHT22;36061;48.116;11.612;2023-03-03T09:35:44;4.60;99.90
50162;DHT22;36061;48.116;11.612;2023-03-03T09:38:27;4.60;99.90
50162;DHT22;36061;48.116;11.612;2023-03-03T09:41:22;4.60;99.90
50162;DHT22;36061;48.116;11.612;2023-03-03T09:44:19;4.70;99.90
50162;DHT22;36061;48.116;11.612;2023-03-03T09:46:57;4.70;99.90
50162;DHT22;36061;48.116;11.612;2023-03-03T09:49:30;4.80;99.90
50162;DHT22;36061;48.116;11.612;2023-03-03T09:52:25;4.90;99.90
50162;DHT22;36061;48.116;11.612;2023-03-03T09:55:06;4.90;99.90
50162;DHT22;36061;48.116;11.612;2023-03-03T09:57:48;4.90;99.90
50162;DHT22;36061;48.116;11.612;2023-03-03T10:00:27;5.00;99.90
50162;DHT22;36061;48.116;11.612;2023-03-03T10:03:21;5.00;99.90
50162;DHT22;36061;48.116;11.612;2023-03-03T10:05:57;5.00;99.90
50162;DHT22;36061;48.116;11.612;2023-03-03T10:08:41;4.90;99.90
50162;DHT22;36061;48.116;11.612;2023-03-03T10:11:17;4.90;99.90
50162;DHT22;36061;48.116;11.612;2023-03-03T10:14:10;4.90;99.90
50162;DHT22;36061;48.116;11.612;2023-03-03T10:16:52;5.00;99.90
50162;DHT22;36061;48.116;11.612;2023-03-03T10:19:35;5.00;99.90
50162;DHT22;36061;48.116;11.612;2023-03-03T10:22:13;5.10;99.90
50162;DHT22;36061;48.116;11.612;2023-03-03T10:24:50;5.20;99.90
50162;DHT22;36061;48.116;11.612;2023-03-03T10:27:36;5.20;99.90
50162;DHT22;36061;48.116;11.612;2023-03-03T10:30:12;5.20;99.90
50162;DHT22;36061;48.116;11.612;2023-03-03T10:32:46;5.20;99.90
50162;DHT22;36061;48.116;11.612;2023-03-03T10:38:26;5.20;99.90
50162;DHT22;36061;48.116;11.612;2023-03-03T10:41:06;5.30;99.90
50162;DHT22;36061;48.116;11.612;2023-03-03T10:43:51;5.40;99.90
50162;DHT22;36061;48.116;11.612;2023-03-03T10:46:49;5.50;99.90
50162;DHT22;36061;48.116;11.612;2023-03-03T10:49:37;5.50;99.90
50162;DHT22;36061;48.116;11.612;2023-03-03T10:52:21;5.50;99.90
50162;DHT22;36061;48.116;11.612;2023-03-03T10:55:14;5.60;99.90
50162;DHT22;36061;48.116;11.612;2023-03-03T10:57:50;5.70;99.90
50162;DHT22;36061;48.116;11.612;2023-03-03T11:00:26;5.80;99.90
50162;DHT22;36061;48.116;11.612;2023-03-03T11:05:51;5.80;99.90
50162;DHT22;36061;48.116;11.612;2023-03-03T11:08:26;5.80;99.90
50162;DHT22;36061;48.116;11.612;2023-03-03T11:11:02;5.90;99.90
50162;DHT22;36061;48.116;11.612;2023-03-03T11:13:39;5.90;99.90
50162;DHT22;36061;48.116;11.612;2023-03-03T11:19:24;6.00;99.90
50162;DHT22;36061;48.116;11.612;2023-03-03T11:21:59;6.00;99.90
50162;DHT22;36061;48.116;11.612;2023-03-03T11:24:43;6.10;99.90
50162;DHT22;36061;48.116;11.612;2023-03-03T11:27:28;6.10;99.90
50162;DHT22;36061;48.116;11.612;2023-03-03T11:30:11;6.30;99.90
50162;DHT22;36061;48.116;11.612;2023-03-03T11:32:49;6.30;99.90
50162;DHT22;36061;48.116;11.612;2023-03-03T11:35:24;6.40;99.90
50162;DHT22;36061;48.116;11.612;2023-03-03T11:38:00;6.40;99.90
50162;DHT22;36061;48.116;11.612;2023-03-03T11:40:33;6.40;99.90
50162;DHT22;36061;48.116;11.612;2023-03-03T11:43:10;6.40;99.90
50162;DHT22;36061;48.116;11.612;2023-03-03T11:45:43;6.40;99.90
50162;DHT22;36061;48.116;11.612;2023-03-03T11:48:18;6.40;99.90
50162;DHT22;36061;48.116;11.612;2023-03-03T11:50:52;6.50;99.90
50162;DHT22;36061;48.116;11.612;2023-03-03T11:53:33;6.50;99.90
50162;DHT22;36061;48.116;11.612;2023-03-03T11:56:09;6.50;99.90
50162;DHT22;36061;48.116;11.612;2023-03-03T11:58:45;6.50;99.90
50162;DHT22;36061;48.116;11.612;2023-03-03T12:01:19;6.50;99.90
50162;DHT22;36061;48.116;11.612;2023-03-03T12:03:53;6.60;99.90
50162;DHT22;36061;48.116;11.612;2023-03-03T12:06:29;6.70;99.90
50162;DHT22;36061;48.116;11.612;2023-03-03T12:09:17;6.70;99.90
50162;DHT22;36061;48.116;11.612;2023-03-03T12:11:52;6.80;99.90
50162;DHT22;36061;48.116;11.612;2023-03-03T12:17:23;6.90;99.90
50162;DHT22;36061;48.116;11.612;2023-03-03T12:19:58;6.90;99.90
50162;DHT22;36061;48.116;11.612;2023-03-03T12:22:34;7.00;99.90
50162;DHT22;36061;48.116;11.612;2023-03-03T12:25:21;7.00;99.90
50162;DHT22;36061;48.116;11.612;2023-03-03T12:27:53;7.10;99.90
50162;DHT22;36061;48.116;11.612;2023-03-03T12:30:31;7.10;99.90
50162;DHT22;36061;48.116;11.612;2023-03-03T12:33:09;7.10;99.90
50162;DHT22;36061;48.116;11.612;2023-03-03T12:35:44;7.20;99.90
50162;DHT22;36061;48.116;11.612;2023-03-03T12:38:21;7.10;99.90
50162;DHT22;36061;48.116;11.612;2023-03-03T12:40:58;7.20;99.90
50162;DHT22;36061;48.116;11.612;2023-03-03T12:43:51;7.20;99.90
50162;DHT22;36061;48.116;11.612;2023-03-03T12:46:27;7.20;99.90
50162;DHT22;36061;48.116;11.612;2023-03-03T12:48:55;7.20;99.90
50162;DHT22;36061;48.116;11.612;2023-03-03T12:51:39;7.20;99.90
50162;DHT22;36061;48.116;11.612;2023-03-03T12:54:38;7.20;99.90
50162;DHT22;36061;48.116;11.612;2023-03-03T12:57:15;7.20;99.90
50162;DHT22;36061;48.116;11.612;2023-03-03T12:59:51;7.20;99.90
50162;DHT22;36061;48.116;11.612;2023-03-03T13:02:38;7.20;99.90
50162;DHT22;36061;48.116;11.612;2023-03-03T13:05:20;7.10;99.90
50162;DHT22;36061;48.116;11.612;2023-03-03T13:07:56;7.10;99.90
50162;DHT22;36061;48.116;11.612;2023-03-03T13:10:37;7.10;99.90
50162;DHT22;36061;48.116;11.612;2023-03-03T13:13:10;7.20;99.90
50162;DHT22;36061;48.116;11.612;2023-03-03T13:15:43;7.20;99.90
50162;DHT22;36061;48.116;11.612;2023-03-03T13:18:26;7.20;99.90
50162;DHT22;36061;48.116;11.612;2023-03-03T13:20:58;7.30;99.90
50162;DHT22;36061;48.116;11.612;2023-03-03T13:23:37;7.30;99.90
50162;DHT22;36061;48.116;11.612;2023-03-03T13:26:10;7.20;99.90
50162;DHT22;36061;48.116;11.612;2023-03-03T13:28:44;7.20;99.90
50162;DHT22;36061;48.116;11.612;2023-03-03T13:31:20;7.10;99.90
50162;DHT22;36061;48.116;11.612;2023-03-03T13:33:52;7.10;99.90
50162;DHT22;36061;48.116;11.612;2023-03-03T13:36:24;7.00;99.90
50162;DHT22;36061;48.116;11.612;2023-03-03T13:38:56;6.90;99.90
50162;DHT22;36061;48.116;11.612;2023-03-03T13:41:27;6.80;99.90
50162;DHT22;36061;48.116;11.612;2023-03-03T13:44:00;6.70;99.90
50162;DHT22;36061;48.116;11.612;2023-03-03T13:46:37;6.70;99.90
50162;DHT22;36061;48.116;11.612;2023-03-03T13:49:21;6.70;99.90
50162;DHT22;36061;48.116;11.612;2023-03-03T13:51:59;6.70;99.90
50162;DHT22;36061;48.116;11.612;2023-03-03T13:57:48;6.80;99.90
50162;DHT22;36061;48.116;11.612;2023-03-03T14:03:46;6.90;99.90
50162;DHT22;36061;48.116;11.612;2023-03-03T14:06:17;6.90;99.90
50162;DHT22;36061;48.116;11.612;2023-03-03T14:11:51;6.90;99.90
50162;DHT22;36061;48.116;11.612;2023-03-03T14:14:43;7.00;99.90
50162;DHT22;36061;48.116;11.612;2023-03-03T14:17:18;7.00;99.90
50162;DHT22;36061;48.116;11.612;2023-03-03T14:19:55;7.10;99.90
50162;DHT22;36061;48.116;11.612;2023-03-03T14:22:43;7.20;99.90
50162;DHT22;36061;48.116;11.612;2023-03-03T14:25:12;7.20;99.90
50162;DHT22;36061;48.116;11.612;2023-03-03T14:27:57;7.20;99.90
50162;DHT22;36061;48.116;11.612;2023-03-03T14:30:31;7.20;99.90
50162;DHT22;36061;48.116;11.612;2023-03-03T14:33:01;7.20;99.90
50162;DHT22;36061;48.116;11.612;2023-03-03T14:35:31;7.20;99.90
50162;DHT22;36061;48.116;11.612;2023-03-03T14:38:04;7.20;99.90
50162;DHT22;36061;48.116;11.612;2023-03-03T14:40:33;7.20;99.90
50162;DHT22;36061;48.116;11.612;2023-03-03T14:43:17;7.20;99.90
50162;DHT22;36061;48.116;11.612;2023-03-03T14:45:45;7.20;99.90
50162;DHT22;36061;48.116;11.612;2023-03-03T14:48:15;7.20;99.90
50162;DHT22;36061;48.116;11.612;2023-03-03T14:50:48;7.20;99.90
50162;DHT22;36061;48.116;11.612;2023-03-03T14:53:22;7.20;99.90
50162;DHT22;36061;48.116;11.612;2023-03-03T14:55:51;7.20;99.90
50162;DHT22;36061;48.116;11.612;2023-03-03T14:58:29;7.20;99.90
50162;DHT22;36061;48.116;11.612;2023-03-03T15:01:08;7.10;99.90
50162;DHT22;36061;48.116;11.612;2023-03-03T15:03:44;7.20;99.90
50162;DHT22;36061;48.116;11.612;2023-03-03T15:06:30;7.20;99.90
50162;DHT22;36061;48.116;11.612;2023-03-03T15:09:23;7.20;99.90
50162;DHT22;36061;48.116;11.612;2023-03-03T15:11:52;7.20;99.90
50162;DHT22;36061;48.116;11.612;2023-03-03T15:14:28;7.20;99.90
50162;DHT22;36061;48.116;11.612;2023-03-03T15:16:57;7.30;99.90
50162;DHT22;36061;48.116;11.612;2023-03-03T15:19:46;7.30;99.90
50162;DHT22;36061;48.116;11.612;2023-03-03T15:22:26;7.30;99.90
50162;DHT22;36061;48.116;11.612;2023-03-03T15:25:00;7.30;99.90
50162;DHT22;36061;48.116;11.612;2023-03-03T15:27:34;7.30;99.90
50162;DHT22;36061;48.116;11.612;2023-03-03T15:30:14;7.40;99.90
50162;DHT22;36061;48.116;11.612;2023-03-03T15:32:49;7.40;99.90
50162;DHT22;36061;48.116;11.612;2023-03-03T15:35:26;7.40;99.90
50162;DHT22;36061;48.116;11.612;2023-03-03T15:38:03;7.40;99.90
50162;DHT22;36061;48.116;11.612;2023-03-03T15:40:38;7.40;99.90
50162;DHT22;36061;48.116;11.612;2023-03-03T15:43:13;7.40;99.90
50162;DHT22;36061;48.116;11.612;2023-03-03T15:45:51;7.50;99.90
50162;DHT22;36061;48.116;11.612;2023-03-03T15:48:37;7.50;99.90
50162;DHT22;36061;48.116;11.612;2023-03-03T15:51:17;7.50;99.90
50162;DHT22;36061;48.116;11.612;2023-03-03T15:53:57;7.50;99.90
50162;DHT22;36061;48.116;11.612;2023-03-03T15:56:34;7.40;99.90
50162;DHT22;36061;48.116;11.612;2023-03-03T15:59:45;7.40;99.90
50162;DHT22;36061;48.116;11.612;2023-03-03T16:02:20;7.40;99.90
50162;DHT22;36061;48.116;11.612;2023-03-03T16:04:53;7.30;99.90
50162;DHT22;36061;48.116;11.612;2023-03-03T16:07:30;7.30;99.90
50162;DHT22;36061;48.116;11.612;2023-03-03T16:10:09;7.30;99.90
50162;DHT22;36061;48.116;11.612;2023-03-03T16:12:45;7.30;99.90
50162;DHT22;36061;48.116;11.612;2023-03-03T16:15:23;7.20;99.90
50162;DHT22;36061;48.116;11.612;2023-03-03T16:17:59;7.20;99.90
50162;DHT22;36061;48.116;11.612;2023-03-03T16:20:35;7.20;99.90
50162;DHT22;36061;48.116;11.612;2023-03-03T16:23:16;7.10;99.90
50162;DHT22;36061;48.116;11.612;2023-03-03T16:26:03;7.10;99.90
50162;DHT22;36061;48.116;11.612;2023-03-03T16:28:46;7.10;99.90
50162;DHT22;36061;48.116;11.612;2023-03-03T16:31:20;7.10;99.90